sensor_id;sensor_type;location;lat;lon;timestamp;pressure;altitude;pressure_sealevel;temperature;humidity
11808;BME280;5961;42.640;23.380;2022-09-03T00:00:54;94032.75;;;17.77;100.00
11808;BME280;5961;42.640;23.380;2022-09-03T00:03:26;94034.31;;;17.82;100.00
11808;BME280;5961;42.640;23.380;2022-09-03T00:06:02;94046.97;;;17.78;100.00
11808;BME280;5961;42.640;23.380;2022-09-03T00:08:34;94042.00;;;17.83;100.00
11808;BME280;5961;42.640;23.380;2022-09-03T00:11:09;94037.00;;;17.82;100.00
11808;BME280;5961;42.640;23.380;2022-09-03T00:13:43;94047.38;;;17.80;100.00
11808;BME280;5961;42.640;23.380;2022-09-03T00:16:13;94041.22;;;17.79;100.00
11808;BME280;5961;42.640;23.380;2022-09-03T00:18:46;94061.19;;;17.78;100.00
11808;BME280;5961;42.640;23.380;2022-09-03T00:21:19;94050.81;;;17.80;100.00
11808;BME280;5961;42.640;23.380;2022-09-03T00:23:51;94039.28;;;17.76;100.00
11808;BME280;5961;42.640;23.380;2022-09-03T00:26:21;93994.91;;;17.42;100.00
11808;BME280;5961;42.640;23.380;2022-09-03T00:28:56;94050.78;;;17.73;100.00
11808;BME280;5961;42.640;23.380;2022-09-03T00:31:28;93995.72;;;17.53;100.00
11808;BME280;5961;42.640;23.380;2022-09-03T00:34:01;94037.34;;;17.73;100.00
11808;BME280;5961;42.640;23.380;2022-09-03T00:36:33;94044.28;;;17.81;100.00
11808;BME280;5961;42.640;23.380;2022-09-03T00:39:01;94040.84;;;17.84;100.00
11808;BME280;5961;42.640;23.380;2022-09-03T00:41:32;94032.78;;;17.84;100.00
11808;BME280;5961;42.640;23.380;2022-09-03T00:44:32;94050.03;;;17.76;100.00
11808;BME280;5961;42.640;23.380;2022-09-03T00:47:08;94047.38;;;17.80;100.00
11808;BME280;5961;42.640;23.380;2022-09-03T00:49:45;94033.09;;;17.72;100.00
11808;BME280;5961;42.640;23.380;2022-09-03T00:52:26;94038.50;;;17.76;100.00
11808;BME280;5961;42.640;23.380;2022-09-03T00:55:04;94034.28;;;17.78;100.00
11808;BME280;5961;42.640;23.380;2022-09-03T00:57:41;94047.31;;;17.73;100.00
11808;BME280;5961;42.640;23.380;2022-09-03T01:00:12;94045.75;;;17.68;100.00
11808;BME280;5961;42.640;23.380;2022-09-03T01:02:50;94043.09;;;17.72;100.00
11808;BME280;5961;42.640;23.380;2022-09-03T01:05:30;94036.22;;;17.81;100.00
11808;BME280;5961;42.640;23.380;2022-09-03T01:08:08;94042.00;;;17.83;100.00
11808;BME280;5961;42.640;23.380;2022-09-03T01:10:46;94036.63;;;17.83;100.00
11808;BME280;5961;42.640;23.380;2022-09-03T01:13:20;94030.81;;;17.74;100.00
11808;BME280;5961;42.640;23.380;2022-09-03T01:15:57;94041.97;;;17.76;100.00
11808;BME280;5961;42.640;23.380;2022-09-03T01:18:36;94034.28;;;17.75;100.00
11808;BME280;5961;42.640;23.380;2022-09-03T01:21:21;94043.50;;;17.77;100.00
11808;BME280;5961;42.640;23.380;2022-09-03T01:24:24;94026.16;;;17.61;100.00
11808;BME280;5961;42.640;23.380;2022-09-03T01:27:06;94038.84;;;17.64;100.00
11808;BME280;5961;42.640;23.380;2022-09-03T01:29:43;94040.97;;;17.44;100.00
11808;BME280;5961;42.640;23.380;2022-09-03T01:32:20;93985.03;;;16.98;100.00
11808;BME280;5961;42.640;23.380;2022-09-03T01:35:00;94060.16;;;17.39;100.00
11808;BME280;5961;42.640;23.380;2022-09-03T01:37:37;94068.56;;;17.34;100.00
11808;BME280;5961;42.640;23.380;2022-09-03T01:40:16;94063.50;;;17.29;100.00
11808;BME280;5961;42.640;23.380;2022-09-03T01:42:52;94066.19;;;17.29;100.00
11808;BME280;5961;42.640;23.380;2022-09-03T01:45:37;94066.97;;;17.29;100.00
11808;BME280;5961;42.640;23.380;2022-09-03T01:48:22;94075.41;;;17.28;100.00
11808;BME280;5961;42.640;23.380;2022-09-03T01:50:55;94056.94;;;17.23;100.00
11808;BME280;5961;42.640;23.380;2022-09-03T01:53:37;94027.25;;;17.01;100.00
11808;BME280;5961;42.640;23.380;2022-09-03T01:56:18;94054.69;;;17.25;100.00
11808;BME280;5961;42.640;23.380;2022-09-03T01:58:55;94060.72;;;17.15;100.00
11808;BME280;5961;42.640;23.380;2022-09-03T02:01:32;94071.94;;;17.24;100.00
11808;BME280;5961;42.640;23.380;2022-09-03T02:04:02;94056.94;;;17.23;100.00
11808;BME280;5961;42.640;23.380;2022-09-03T02:06:39;94051.19;;;17.21;100.00
11808;BME280;5961;42.640;23.380;2022-09-03T02:09:06;94063.50;;;17.25;100.00
11808;BME280;5961;42.640;23.380;2022-09-03T02:11:32;94043.19;;;17.28;100.00
11808;BME280;5961;42.640;23.380;2022-09-03T02:13:59;94042.03;;;17.25;100.00
11808;BME280;5961;42.640;23.380;2022-09-03T02:16:31;94049.34;;;17.32;100.00
11808;BME280;5961;42.640;23.380;2022-09-03T02:19:00;94073.16;;;17.33;100.00
11808;BME280;5961;42.640;23.380;2022-09-03T02:21:32;94035.00;;;17.10;100.00
11808;BME280;5961;42.640;23.380;2022-09-03T02:24:02;94069.31;;;17.31;100.00
11808;BME280;5961;42.640;23.380;2022-09-03T02:26:29;94069.31;;;17.31;100.00
11808;BME280;5961;42.640;23.380;2022-09-03T02:28:56;94053.44;;;17.12;100.00
11808;BME280;5961;42.640;23.380;2022-09-03T02:31:24;94078.84;;;17.25;100.00
11808;BME280;5961;42.640;23.380;2022-09-03T02:33:52;94058.41;;;17.10;100.00
11808;BME280;5961;42.640;23.380;2022-09-03T02:36:24;94071.09;;;17.13;100.00
11808;BME280;5961;42.640;23.380;2022-09-03T02:38:51;94071.88;;;17.17;100.00
11808;BME280;5961;42.640;23.380;2022-09-03T02:41:18;94039.94;;;17.01;100.00
11808;BME280;5961;42.640;23.380;2022-09-03T02:43:49;94064.56;;;17.14;100.00
11808;BME280;5961;42.640;23.380;2022-09-03T02:46:18;94073.03;;;17.16;100.00
11808;BME280;5961;42.640;23.380;2022-09-03T02:48:46;94067.66;;;17.16;100.00
11808;BME280;5961;42.640;23.380;2022-09-03T02:51:14;94071.47;;;17.15;100.00
11808;BME280;5961;42.640;23.380;2022-09-03T02:53:41;94074.16;;;17.15;100.00
11808;BME280;5961;42.640;23.380;2022-09-03T02:56:08;94075.75;;;17.19;100.00
11808;BME280;5961;42.640;23.380;2022-09-03T02:58:35;94072.22;;;17.12;100.00
11808;BME280;5961;42.640;23.380;2022-09-03T03:01:03;94066.09;;;17.15;100.00
11808;BME280;5961;42.640;23.380;2022-09-03T03:03:30;94084.56;;;17.16;100.00
11808;BME280;5961;42.640;23.380;2022-09-03T03:05:59;94062.91;;;16.98;100.00
11808;BME280;5961;42.640;23.380;2022-09-03T03:08:28;94042.91;;;16.89;100.00
11808;BME280;5961;42.640;23.380;2022-09-03T03:10:57;94077.59;;;17.12;100.00
11808;BME280;5961;42.640;23.380;2022-09-03T03:13:25;94056.00;;;16.97;100.00
11808;BME280;5961;42.640;23.380;2022-09-03T03:15:55;94075.28;;;17.10;100.00
11808;BME280;5961;42.640;23.380;2022-09-03T03:18:22;94078.72;;;17.07;100.00
11808;BME280;5961;42.640;23.380;2022-09-03T03:20:49;94076.03;;;17.11;100.00
11808;BME280;5961;42.640;23.380;2022-09-03T03:23:16;94078.38;;;17.12;100.00
11808;BME280;5961;42.640;23.380;2022-09-03T03:25:44;94072.97;;;17.09;100.00
11808;BME280;5961;42.640;23.380;2022-09-03T03:28:11;94074.09;;;17.08;100.00
11808;BME280;5961;42.640;23.380;2022-09-03T03:30:39;94044.56;;;17.04;100.00
11808;BME280;5961;42.640;23.380;2022-09-03T03:33:07;94072.28;;;17.19;100.00
11808;BME280;5961;42.640;23.380;2022-09-03T03:35:34;94079.63;;;17.25;100.00
11808;BME280;5961;42.640;23.380;2022-09-03T03:38:02;94077.69;;;17.22;100.00
11808;BME280;5961;42.640;23.380;2022-09-03T03:40:29;94086.91;;;17.25;100.00
11808;BME280;5961;42.640;23.380;2022-09-03T03:42:58;94066.50;;;17.17;100.00
11808;BME280;5961;42.640;23.380;2022-09-03T03:45:24;94079.59;;;17.22;100.00
11808;BME280;5961;42.640;23.380;2022-09-03T03:47:56;94034.91;;;16.99;100.00
11808;BME280;5961;42.640;23.380;2022-09-03T03:50:23;94078.47;;;17.26;100.00
11808;BME280;5961;42.640;23.380;2022-09-03T03:52:49;94050.75;;;17.12;100.00
11808;BME280;5961;42.640;23.380;2022-09-03T03:55:16;94078.50;;;17.30;100.00
11808;BME280;5961;42.640;23.380;2022-09-03T03:57:43;94067.72;;;17.26;100.00
11808;BME280;5961;42.640;23.380;2022-09-03T04:00:12;94082.28;;;17.22;100.00
11808;BME280;5961;42.640;23.380;2022-09-03T04:02:39;94089.63;;;17.28;100.00
11808;BME280;5961;42.640;23.380;2022-09-03T04:05:07;94075.81;;;17.30;100.00
11808;BME280;5961;42.640;23.380;2022-09-03T04:07:34;94096.13;;;17.27;100.00
11808;BME280;5961;42.640;23.380;2022-09-03T04:10:00;94085.44;;;17.31;100.00
11808;BME280;5961;42.640;23.380;2022-09-03T04:12:27;94083.84;;;17.26;100.00
11808;BME280;5961;42.640;23.380;2022-09-03T04:14:54;94079.59;;;17.22;100.00
11808;BME280;5961;42.640;23.380;2022-09-03T04:17:22;94083.81;;;17.23;100.00
11808;BME280;5961;42.640;23.380;2022-09-03T04:19:49;94091.13;;;17.22;100.00
11808;BME280;5961;42.640;23.380;2022-09-03T04:22:16;94085.34;;;17.24;100.00
11808;BME280;5961;42.640;23.380;2022-09-03T04:24:43;94092.28;;;17.25;100.00
11808;BME280;5961;42.640;23.380;2022-09-03T04:27:10;94079.22;;;17.23;100.00
11808;BME280;5961;42.640;23.380;2022-09-03T04:29:37;94075.38;;;17.21;100.00
11808;BME280;5961;42.640;23.380;2022-09-03T04:32:04;94088.44;;;17.26;100.00
11808;BME280;5961;42.640;23.380;2022-09-03T04:34:49;94080.75;;;17.24;100.00
11808;BME280;5961;42.640;23.380;2022-09-03T04:37:16;94100.38;;;17.32;100.00
11808;BME280;5961;42.640;23.380;2022-09-03T04:39:44;94102.72;;;17.33;100.00
11808;BME280;5961;42.640;23.380;2022-09-03T04:42:10;94103.88;;;17.36;100.00
11808;BME280;5961;42.640;23.380;2022-09-03T04:44:37;94120.38;;;17.38;100.00
11808;BME280;5961;42.640;23.380;2022-09-03T04:47:05;94113.06;;;17.35;100.00
11808;BME280;5961;42.640;23.380;2022-09-03T04:49:32;94112.66;;;17.29;100.00
11808;BME280;5961;42.640;23.380;2022-09-03T04:52:00;94113.88;;;17.39;100.00
11808;BME280;5961;42.640;23.380;2022-09-03T04:54:27;94116.16;;;17.37;100.00
11808;BME280;5961;42.640;23.380;2022-09-03T04:56:54;94126.94;;;17.44;100.00
11808;BME280;5961;42.640;23.380;2022-09-03T04:59:21;94130.81;;;17.43;100.00
11808;BME280;5961;42.640;23.380;2022-09-03T05:01:47;94123.44;;;17.36;100.00
11808;BME280;5961;42.640;23.380;2022-09-03T05:04:17;94131.53;;;17.40;100.00
11808;BME280;5961;42.640;23.380;2022-09-03T05:06:44;94141.09;;;17.34;100.00
11808;BME280;5961;42.640;23.380;2022-09-03T05:09:12;94145.63;;;17.26;100.00
11808;BME280;5961;42.640;23.380;2022-09-03T05:11:39;94146.78;;;17.25;100.00
11808;BME280;5961;42.640;23.380;2022-09-03T05:14:06;94148.69;;;17.25;100.00
11808;BME280;5961;42.640;23.380;2022-09-03T05:16:36;94160.53;;;17.20;100.00
11808;BME280;5961;42.640;23.380;2022-09-03T05:19:03;94138.25;;;17.16;100.00
11808;BME280;5961;42.640;23.380;2022-09-03T05:21:32;94137.41;;;17.09;100.00
11808;BME280;5961;42.640;23.380;2022-09-03T05:24:00;94133.97;;;17.12;100.00
11808;BME280;5961;42.640;23.380;2022-09-03T05:26:30;94132.81;;;17.09;100.00
11808;BME280;5961;42.640;23.380;2022-09-03T05:28:58;94148.22;;;17.16;100.00
11808;BME280;5961;42.640;23.380;2022-09-03T05:31:28;94143.63;;;17.20;100.00
11808;BME280;5961;42.640;23.380;2022-09-03T05:33:57;94140.59;;;17.21;100.00
11808;BME280;5961;42.640;23.380;2022-09-03T05:36:26;94142.16;;;17.26;100.00
11808;BME280;5961;42.640;23.380;2022-09-03T05:38:53;94158.31;;;17.29;100.00
11808;BME280;5961;42.640;23.380;2022-09-03T05:41:21;94141.72;;;17.20;100.00
11808;BME280;5961;42.640;23.380;2022-09-03T05:43:51;94151.03;;;17.30;100.00
11808;BME280;5961;42.640;23.380;2022-09-03T05:46:22;94156.00;;;17.28;100.00
11808;BME280;5961;42.640;23.380;2022-09-03T05:48:54;94155.25;;;17.31;100.00
11808;BME280;5961;42.640;23.380;2022-09-03T05:51:21;94165.34;;;17.44;100.00
11808;BME280;5961;42.640;23.380;2022-09-03T05:53:48;94164.75;;;17.65;100.00
11808;BME280;5961;42.640;23.380;2022-09-03T05:56:16;94158.63;;;17.68;100.00
11808;BME280;5961;42.640;23.380;2022-09-03T05:58:45;94167.09;;;17.67;100.00
11808;BME280;5961;42.640;23.380;2022-09-03T06:01:15;94134.75;;;17.56;100.00
11808;BME280;5961;42.640;23.380;2022-09-03T06:03:43;94171.44;;;17.85;99.96
11808;BME280;5961;42.640;23.380;2022-09-03T06:06:10;94168.47;;;18.04;100.00
11808;BME280;5961;42.640;23.380;2022-09-03T06:08:38;94190.38;;;18.03;98.10
11808;BME280;5961;42.640;23.380;2022-09-03T06:11:06;94181.59;;;18.09;96.77
11808;BME280;5961;42.640;23.380;2022-09-03T06:13:34;94192.34;;;18.09;96.66
11808;BME280;5961;42.640;23.380;2022-09-03T06:16:03;94178.16;;;18.16;96.64
11808;BME280;5961;42.640;23.380;2022-09-03T06:18:31;94185.84;;;18.18;96.44
11808;BME280;5961;42.640;23.380;2022-09-03T06:20:59;94178.16;;;18.13;95.90
11808;BME280;5961;42.640;23.380;2022-09-03T06:23:27;94169.31;;;18.12;96.08
11808;BME280;5961;42.640;23.380;2022-09-03T06:26:02;94161.19;;;18.05;95.93
11808;BME280;5961;42.640;23.380;2022-09-03T06:28:29;94185.75;;;18.00;96.13
11808;BME280;5961;42.640;23.380;2022-09-03T06:30:57;94171.91;;;17.94;96.65
11808;BME280;5961;42.640;23.380;2022-09-03T06:33:24;94186.13;;;17.98;96.18
11808;BME280;5961;42.640;23.380;2022-09-03T06:35:53;94187.19;;;17.87;95.41
11808;BME280;5961;42.640;23.380;2022-09-03T06:38:24;94180.13;;;17.68;96.11
11808;BME280;5961;42.640;23.380;2022-09-03T06:40:53;94186.41;;;17.83;96.39
11808;BME280;5961;42.640;23.380;2022-09-03T06:43:20;94179.44;;;17.75;95.96
11808;BME280;5961;42.640;23.380;2022-09-03T06:45:55;94194.44;;;17.79;96.54
11808;BME280;5961;42.640;23.380;2022-09-03T06:48:22;94189.44;;;17.78;96.60
11808;BME280;5961;42.640;23.380;2022-09-03T06:50:55;94186.38;;;17.79;96.59
11808;BME280;5961;42.640;23.380;2022-09-03T06:53:24;94193.28;;;17.80;96.99
11808;BME280;5961;42.640;23.380;2022-09-03T06:55:55;94154.75;;;17.59;97.39
11808;BME280;5961;42.640;23.380;2022-09-03T06:58:22;94202.94;;;17.85;97.20
11808;BME280;5961;42.640;23.380;2022-09-03T07:00:49;94210.66;;;17.90;96.88
11808;BME280;5961;42.640;23.380;2022-09-03T07:03:18;94198.03;;;17.97;97.25
11808;BME280;5961;42.640;23.380;2022-09-03T07:05:45;94208.06;;;18.04;97.63
11808;BME280;5961;42.640;23.380;2022-09-03T07:08:13;94198.81;;;18.01;97.08
11808;BME280;5961;42.640;23.380;2022-09-03T07:10:40;94194.97;;;18.02;96.61
11808;BME280;5961;42.640;23.380;2022-09-03T07:13:10;94196.56;;;18.10;96.48
11808;BME280;5961;42.640;23.380;2022-09-03T07:15:37;94194.69;;;18.18;99.59
11808;BME280;5961;42.640;23.380;2022-09-03T07:18:04;94211.25;;;18.24;96.36
11808;BME280;5961;42.640;23.380;2022-09-03T07:20:31;94208.19;;;18.25;95.51
11808;BME280;5961;42.640;23.380;2022-09-03T07:22:58;94210.47;;;18.23;95.46
11808;BME280;5961;42.640;23.380;2022-09-03T07:25:26;94170.03;;;18.05;95.25
11808;BME280;5961;42.640;23.380;2022-09-03T07:27:52;94212.06;;;18.35;95.89
11808;BME280;5961;42.640;23.380;2022-09-03T07:30:19;94215.19;;;18.40;96.12
11808;BME280;5961;42.640;23.380;2022-09-03T07:32:46;94207.47;;;18.35;95.14
11808;BME280;5961;42.640;23.380;2022-09-03T07:35:16;94222.97;;;18.49;95.17
11808;BME280;5961;42.640;23.380;2022-09-03T07:37:42;94227.97;;;18.54;95.08
11808;BME280;5961;42.640;23.380;2022-09-03T07:40:09;94227.59;;;18.59;94.82
11808;BME280;5961;42.640;23.380;2022-09-03T07:42:38;94228.44;;;18.67;95.11
11808;BME280;5961;42.640;23.380;2022-09-03T07:45:06;94229.94;;;18.68;94.15
11808;BME280;5961;42.640;23.380;2022-09-03T07:47:35;94232.28;;;18.69;93.15
11808;BME280;5961;42.640;23.380;2022-09-03T07:50:03;94225.38;;;18.72;93.46
11808;BME280;5961;42.640;23.380;2022-09-03T07:52:30;94227.75;;;18.87;93.50
11808;BME280;5961;42.640;23.380;2022-09-03T07:54:57;94232.75;;;18.92;92.91
11808;BME280;5961;42.640;23.380;2022-09-03T07:57:24;94222.38;;;18.91;92.26
11808;BME280;5961;42.640;23.380;2022-09-03T07:59:52;94233.97;;;19.05;91.61
11808;BME280;5961;42.640;23.380;2022-09-03T08:02:19;94240.50;;;19.08;91.51
11808;BME280;5961;42.640;23.380;2022-09-03T08:04:46;94254.72;;;19.05;91.13
11808;BME280;5961;42.640;23.380;2022-09-03T08:07:12;94253.19;;;19.04;89.72
11808;BME280;5961;42.640;23.380;2022-09-03T08:09:39;94239.38;;;19.12;89.12
11808;BME280;5961;42.640;23.380;2022-09-03T08:12:06;94249.38;;;19.19;89.87
11808;BME280;5961;42.640;23.380;2022-09-03T08:14:33;94243.25;;;19.26;89.91
11808;BME280;5961;42.640;23.380;2022-09-03T08:17:01;94249.81;;;19.32;89.43
11808;BME280;5961;42.640;23.380;2022-09-03T08:19:28;94237.09;;;19.32;90.17
11808;BME280;5961;42.640;23.380;2022-09-03T08:21:54;94244.84;;;19.41;89.87
11808;BME280;5961;42.640;23.380;2022-09-03T08:24:21;94246.34;;;19.38;89.38
11808;BME280;5961;42.640;23.380;2022-09-03T08:26:50;94247.94;;;19.50;88.75
11808;BME280;5961;42.640;23.380;2022-09-03T08:29:17;94245.66;;;19.52;88.68
11808;BME280;5961;42.640;23.380;2022-09-03T08:31:44;94244.50;;;19.63;88.81
11808;BME280;5961;42.640;23.380;2022-09-03T08:34:12;94247.19;;;19.70;87.13
11808;BME280;5961;42.640;23.380;2022-09-03T08:36:41;94234.13;;;19.76;87.13
11808;BME280;5961;42.640;23.380;2022-09-03T08:39:09;94251.06;;;19.80;87.27
11808;BME280;5961;42.640;23.380;2022-09-03T08:41:56;94243.38;;;19.82;86.31
11808;BME280;5961;42.640;23.380;2022-09-03T08:44:29;94240.28;;;19.87;86.67
11808;BME280;5961;42.640;23.380;2022-09-03T08:47:02;94240.28;;;19.91;86.53
11808;BME280;5961;42.640;23.380;2022-09-03T08:49:39;94232.56;;;19.89;86.34
11808;BME280;5961;42.640;23.380;2022-09-03T08:52:19;94227.56;;;19.98;85.81
11808;BME280;5961;42.640;23.380;2022-09-03T08:54:48;94237.97;;;20.03;85.55
11808;BME280;5961;42.640;23.380;2022-09-03T08:57:18;94248.00;;;20.06;85.35
11808;BME280;5961;42.640;23.380;2022-09-03T08:59:46;94242.19;;;20.04;85.62
11808;BME280;5961;42.640;23.380;2022-09-03T09:02:23;94248.38;;;20.15;85.29
11808;BME280;5961;42.640;23.380;2022-09-03T09:04:58;94251.06;;;20.15;84.59
11808;BME280;5961;42.640;23.380;2022-09-03T09:07:33;94250.28;;;20.18;84.50
11808;BME280;5961;42.640;23.380;2022-09-03T09:10:08;94249.13;;;20.23;84.03
11808;BME280;5961;42.640;23.380;2022-09-03T09:12:41;94248.75;;;20.24;84.20
11808;BME280;5961;42.640;23.380;2022-09-03T09:15:13;94249.91;;;20.23;84.06
11808;BME280;5961;42.640;23.380;2022-09-03T09:17:53;94263.41;;;20.27;83.62
11808;BME280;5961;42.640;23.380;2022-09-03T09:20:32;94259.94;;;20.27;83.41
11808;BME280;5961;42.640;23.380;2022-09-03T09:23:03;94233.69;;;20.16;83.90
11808;BME280;5961;42.640;23.380;2022-09-03T09:25:31;94255.69;;;20.40;84.14
11808;BME280;5961;42.640;23.380;2022-09-03T09:28:10;94254.53;;;20.34;83.87
11808;BME280;5961;42.640;23.380;2022-09-03T09:30:41;94259.53;;;20.39;83.74
11808;BME280;5961;42.640;23.380;2022-09-03T09:33:08;94265.31;;;20.37;83.19
11808;BME280;5961;42.640;23.380;2022-09-03T09:35:37;94264.16;;;20.42;83.19
11808;BME280;5961;42.640;23.380;2022-09-03T09:38:07;94243.75;;;20.34;83.59
11808;BME280;5961;42.640;23.380;2022-09-03T09:40:35;94271.09;;;20.46;83.04
11808;BME280;5961;42.640;23.380;2022-09-03T09:43:07;94258.75;;;20.45;83.47
11808;BME280;5961;42.640;23.380;2022-09-03T09:45:36;94256.06;;;20.49;83.57
11808;BME280;5961;42.640;23.380;2022-09-03T09:48:08;94263.75;;;20.54;83.08
11808;BME280;5961;42.640;23.380;2022-09-03T09:50:37;94254.50;;;20.48;82.28
11808;BME280;5961;42.640;23.380;2022-09-03T09:53:06;94267.22;;;20.58;82.62
11808;BME280;5961;42.640;23.380;2022-09-03T09:55:48;94262.19;;;20.67;82.73
11808;BME280;5961;42.640;23.380;2022-09-03T09:58:18;94270.28;;;20.67;82.69
11808;BME280;5961;42.640;23.380;2022-09-03T10:00:57;94273.00;;;20.67;82.39
11808;BME280;5961;42.640;23.380;2022-09-03T10:03:26;94242.56;;;20.49;83.08
11808;BME280;5961;42.640;23.380;2022-09-03T10:06:02;94256.38;;;20.72;82.54
11808;BME280;5961;42.640;23.380;2022-09-03T10:08:50;94254.84;;;20.71;82.45
11808;BME280;5961;42.640;23.380;2022-09-03T10:11:19;94272.16;;;20.88;82.99
11808;BME280;5961;42.640;23.380;2022-09-03T10:13:48;94276.75;;;20.94;81.53
11808;BME280;5961;42.640;23.380;2022-09-03T10:16:21;94266.31;;;21.00;81.73
11808;BME280;5961;42.640;23.380;2022-09-03T10:18:56;94263.59;;;21.03;81.22
11808;BME280;5961;42.640;23.380;2022-09-03T10:21:29;94257.44;;;21.03;82.00
11808;BME280;5961;42.640;23.380;2022-09-03T10:24:02;94213.47;;;20.88;82.12
11808;BME280;5961;42.640;23.380;2022-09-03T10:26:33;94242.75;;;21.00;81.26
11808;BME280;5961;42.640;23.380;2022-09-03T10:29:04;94258.53;;;21.23;80.84
11808;BME280;5961;42.640;23.380;2022-09-03T10:31:44;94244.56;;;21.31;80.74
11808;BME280;5961;42.640;23.380;2022-09-03T10:34:15;94244.91;;;21.37;80.48
11808;BME280;5961;42.640;23.380;2022-09-03T10:36:52;94255.69;;;21.48;79.82
11808;BME280;5961;42.640;23.380;2022-09-03T10:39:31;94248.28;;;21.55;79.21
11808;BME280;5961;42.640;23.380;2022-09-03T10:42:20;94247.47;;;21.62;78.90
11808;BME280;5961;42.640;23.380;2022-09-03T10:44:59;94252.09;;;21.65;78.75
11808;BME280;5961;42.640;23.380;2022-09-03T10:47:41;94261.34;;;21.71;78.18
11808;BME280;5961;42.640;23.380;2022-09-03T10:50:14;94262.00;;;21.82;78.50
11808;BME280;5961;42.640;23.380;2022-09-03T10:53:00;94259.31;;;21.89;78.70
11808;BME280;5961;42.640;23.380;2022-09-03T10:55:39;94260.03;;;21.97;78.19
11808;BME280;5961;42.640;23.380;2022-09-03T10:58:26;94260.78;;;21.97;77.01
11808;BME280;5961;42.640;23.380;2022-09-03T11:00:59;94254.84;;;22.13;77.03
11808;BME280;5961;42.640;23.380;2022-09-03T11:03:40;94252.13;;;22.16;76.07
11808;BME280;5961;42.640;23.380;2022-09-03T11:06:12;94233.91;;;22.20;75.45
11808;BME280;5961;42.640;23.380;2022-09-03T11:08:47;94256.09;;;22.46;74.48
11808;BME280;5961;42.640;23.380;2022-09-03T11:11:20;94241.66;;;22.59;73.83
11808;BME280;5961;42.640;23.380;2022-09-03T11:13:53;94247.78;;;22.67;72.66
11808;BME280;5961;42.640;23.380;2022-09-03T11:16:25;94259.81;;;22.62;72.92
11808;BME280;5961;42.640;23.380;2022-09-03T11:18:56;94264.06;;;22.63;72.04
11808;BME280;5961;42.640;23.380;2022-09-03T11:21:25;94233.69;;;22.45;71.71
11808;BME280;5961;42.640;23.380;2022-09-03T11:24:04;94260.00;;;22.82;71.45
11808;BME280;5961;42.640;23.380;2022-09-03T11:26:33;94265.69;;;22.94;70.86
11808;BME280;5961;42.640;23.380;2022-09-03T11:29:05;94264.88;;;22.98;70.44
11808;BME280;5961;42.640;23.380;2022-09-03T11:31:44;94267.88;;;23.07;70.35
11808;BME280;5961;42.640;23.380;2022-09-03T11:34:14;94268.47;;;23.21;69.98
11808;BME280;5961;42.640;23.380;2022-09-03T11:36:42;94259.06;;;23.29;69.64
11808;BME280;5961;42.640;23.380;2022-09-03T11:39:18;94258.97;;;23.36;68.52
11808;BME280;5961;42.640;23.380;2022-09-03T11:41:56;94260.34;;;23.52;67.50
11808;BME280;5961;42.640;23.380;2022-09-03T11:44:23;94235.75;;;23.35;65.83
11808;BME280;5961;42.640;23.380;2022-09-03T11:46:55;94251.84;;;23.49;65.93
11808;BME280;5961;42.640;23.380;2022-09-03T11:49:28;94261.28;;;23.68;66.68
11808;BME280;5961;42.640;23.380;2022-09-03T11:51:59;94254.41;;;23.60;65.39
11808;BME280;5961;42.640;23.380;2022-09-03T11:54:31;94260.88;;;23.70;66.06
11808;BME280;5961;42.640;23.380;2022-09-03T11:57:07;94257.63;;;23.78;66.79
11808;BME280;5961;42.640;23.380;2022-09-03T11:59:36;94260.19;;;23.89;66.05
11808;BME280;5961;42.640;23.380;2022-09-03T12:02:10;94251.13;;;23.99;66.18
11808;BME280;5961;42.640;23.380;2022-09-03T12:04:43;94251.38;;;24.08;65.48
11808;BME280;5961;42.640;23.380;2022-09-03T12:07:25;94248.44;;;24.22;64.63
11808;BME280;5961;42.640;23.380;2022-09-03T12:10:14;94238.66;;;24.28;63.70
11808;BME280;5961;42.640;23.380;2022-09-03T12:13:04;94209.94;;;24.27;62.69
11808;BME280;5961;42.640;23.380;2022-09-03T12:15:48;94231.59;;;24.54;62.38
11808;BME280;5961;42.640;23.380;2022-09-03T12:18:22;94234.47;;;24.67;62.46
11808;BME280;5961;42.640;23.380;2022-09-03T12:21:02;94242.91;;;24.72;62.07
11808;BME280;5961;42.640;23.380;2022-09-03T12:23:31;94222.44;;;24.87;61.27
11808;BME280;5961;42.640;23.380;2022-09-03T12:26:03;94224.53;;;24.99;59.85
11808;BME280;5961;42.640;23.380;2022-09-03T12:28:34;94189.91;;;24.84;59.65
11808;BME280;5961;42.640;23.380;2022-09-03T12:31:06;94212.81;;;25.02;59.43
11808;BME280;5961;42.640;23.380;2022-09-03T12:33:47;94216.38;;;25.19;59.72
11808;BME280;5961;42.640;23.380;2022-09-03T12:36:15;94219.94;;;25.16;58.77
11808;BME280;5961;42.640;23.380;2022-09-03T12:38:42;94226.16;;;25.17;58.59
11808;BME280;5961;42.640;23.380;2022-09-03T12:41:24;94227.25;;;25.19;59.53
11808;BME280;5961;42.640;23.380;2022-09-03T12:43:53;94218.94;;;25.26;60.23
11808;BME280;5961;42.640;23.380;2022-09-03T12:46:25;94216.13;;;25.30;60.77
11808;BME280;5961;42.640;23.380;2022-09-03T12:48:56;94215.41;;;25.29;60.39
11808;BME280;5961;42.640;23.380;2022-09-03T12:51:30;94212.69;;;25.45;60.54
11808;BME280;5961;42.640;23.380;2022-09-03T12:53:57;94213.41;;;25.49;60.44
11808;BME280;5961;42.640;23.380;2022-09-03T12:56:27;94200.63;;;25.46;59.89
11808;BME280;5961;42.640;23.380;2022-09-03T12:59:02;94203.56;;;25.55;59.58
11808;BME280;5961;42.640;23.380;2022-09-03T13:01:33;94198.44;;;25.57;59.98
11808;BME280;5961;42.640;23.380;2022-09-03T13:04:07;94206.03;;;25.66;59.61
11808;BME280;5961;42.640;23.380;2022-09-03T13:06:45;94202.38;;;25.73;58.01
11808;BME280;5961;42.640;23.380;2022-09-03T13:09:15;94201.91;;;25.78;58.21
11808;BME280;5961;42.640;23.380;2022-09-03T13:11:45;94197.13;;;25.82;57.31
11808;BME280;5961;42.640;23.380;2022-09-03T13:14:13;94189.72;;;25.82;57.68
11808;BME280;5961;42.640;23.380;2022-09-03T13:17:05;94207.84;;;25.89;57.38